Startpagina
METAR-TAF:

METAR-TAF

Vliegvelden :

Ostrava, Tsjechië

breedte: 49-41N, lengte: 018-07E, hoogte: 256 m

Actueel weer

Dit bericht is 22 minuten geleden gemaakt, om 00:30 UTC
Wind 12 kt uit het noordnoordoosten
Temperatuur -2°C
Vochtigheid 80%
Druk 1020 hPa
Zicht: 4500 m
Geheel bewolkt op 3900 ft
nevel

METAR: LKMT 220030Z 03012KT 4500 BR OVC039 M02/M05 Q1020 NOSIG

Tijdstip: 01:52 (00:52 UTC)

Verwachting

Dit bericht is 1 uur en het 52 minuten geleden gemaakt, om 23:00 UTC
Verwachting geldig van 22 om 00 UTC tot 23 om 06 UTC
Wind 8 kt uit het noordnoordoosten
Zicht: 7000 m
Gebroken wolken op 3500 ft
Tijdelijke
van 22 om 00 UTC tot 23 om 06 UTC
Wind 16 kt uit het noordoosten met uitschieters tot 28 kt
Kans 30% :
Tijdelijke
van 22 om 00 UTC tot 23 om 06 UTC
Zicht: 3000 m
Gebroken wolken op 1200 ft
lichte sneeuw

TAF: LKMT 212300Z 2200/2306 03008KT 7000 BKN035 TEMPO 2200/2306 05016G28KT PROB30 TEMPO 2200/2306 3000 -SN BKN012

Waarnemingen en weersverwachtingen van meer dan 4000 vliegvelden (METAR en TAF).

De beschikbare stations zijn de gele en rode punten op de kaart.

Ga met uw muis naar het station om de naam te zien.

Klik dan om waarnemingen en weersverwachtingen te zien.

kaart wijzigen: klik op de groene knoppen met een zwart kruis om in te zoomen, op de groene knop met een streepje om uit te zoomen of op de groene pijlen voor aangrenzende kaarten.


METAR-TAF: